createdAt,value
2023-04-14T00:00:43.728Z,11.43
2023-04-14T00:03:35.929Z,11.39
2023-04-14T00:06:28.288Z,11.34
2023-04-14T00:09:20.340Z,11.27
2023-04-14T00:12:12.384Z,11.25
2023-04-14T00:15:04.821Z,11.31
2023-04-14T00:17:56.945Z,11.29
2023-04-14T00:20:49.514Z,11.30
2023-04-14T00:23:41.578Z,11.31
2023-04-14T00:26:34.022Z,11.30
2023-04-14T00:29:26.314Z,11.30
2023-04-14T00:32:09.150Z,11.30
2023-04-14T00:35:03.312Z,11.29
2023-04-14T00:37:56.611Z,11.30
2023-04-14T00:40:48.831Z,11.26
2023-04-14T00:43:40.763Z,11.23
2023-04-14T00:46:33.387Z,11.19
2023-04-14T00:49:26.018Z,11.14
2023-04-14T00:52:18.166Z,11.14
2023-04-14T00:55:11.906Z,11.19
2023-04-14T00:58:04.182Z,11.20
2023-04-14T01:00:56.622Z,11.21
2023-04-14T01:03:49.256Z,11.22
2023-04-14T01:06:41.328Z,11.23
2023-04-14T01:09:33.466Z,11.22
2023-04-14T01:12:41.626Z,11.20
2023-04-14T01:15:40.067Z,11.19
2023-04-14T01:18:44.700Z,11.16
2023-04-14T01:21:48.741Z,11.12
2023-04-14T01:25:07.528Z,11.10
2023-04-14T01:28:23.205Z,11.04
2023-04-14T01:31:22.262Z,10.96
2023-04-14T01:34:20.595Z,10.97
2023-04-14T01:37:17.811Z,11.04
2023-04-14T01:40:15.475Z,11.03
2023-04-14T01:43:13.140Z,11.05
2023-04-14T01:46:09.289Z,11.09
2023-04-14T01:49:01.722Z,11.12
2023-04-14T01:51:56.451Z,11.14
2023-04-14T01:54:51.760Z,11.15
2023-04-14T01:57:45.126Z,11.15
2023-04-14T02:00:39.010Z,11.10
2023-04-14T02:03:32.441Z,11.07
2023-04-14T02:06:27.481Z,11.06
2023-04-14T02:09:20.318Z,11.05
2023-04-14T02:12:12.996Z,11.00
2023-04-14T02:15:06.138Z,10.97
2023-04-14T02:18:00.416Z,10.93
2023-04-14T02:20:52.587Z,10.93
2023-04-14T02:23:28.297Z,10.96
2023-04-14T02:26:26.339Z,10.97
2023-04-14T02:29:11.060Z,10.98
2023-04-14T02:32:06.481Z,11.02
2023-04-14T02:35:06.083Z,11.06
2023-04-14T02:38:06.376Z,11.09
2023-04-14T02:41:00.173Z,11.10
2023-04-14T02:44:01.676Z,11.11
2023-04-14T02:47:03.707Z,11.08
2023-04-14T02:49:57.672Z,11.07
2023-04-14T02:52:51.792Z,11.04
2023-04-14T02:55:46.100Z,11.03
2023-04-14T02:58:39.204Z,10.98
2023-04-14T03:01:33.141Z,10.92
2023-04-14T03:04:26.738Z,10.89
2023-04-14T03:07:20.929Z,10.87
2023-04-14T03:10:14.227Z,10.93
2023-04-14T03:13:07.859Z,10.91
2023-04-14T03:16:00.640Z,10.93
2023-04-14T03:18:54.442Z,10.96
2023-04-14T03:21:47.166Z,10.96
2023-04-14T03:24:41.448Z,10.95
2023-04-14T03:27:32.914Z,10.96
2023-04-14T03:30:27.092Z,10.97
2023-04-14T03:33:21.867Z,10.94
2023-04-14T03:36:16.125Z,10.89
2023-04-14T03:39:06.887Z,10.85
2023-04-14T03:42:01.931Z,10.79
2023-04-14T03:44:56.820Z,10.77
2023-04-14T03:47:49.043Z,10.73
2023-04-14T03:50:43.169Z,10.70
2023-04-14T03:53:36.949Z,10.69
2023-04-14T03:56:31.893Z,10.75
2023-04-14T03:59:27.187Z,10.77
2023-04-14T04:02:20.020Z,10.80
2023-04-14T04:05:13.553Z,10.79
2023-04-14T04:08:06.973Z,10.78
2023-04-14T04:11:01.670Z,10.80
2023-04-14T04:13:55.893Z,10.79
2023-04-14T04:16:51.776Z,10.77
2023-04-14T04:19:45.963Z,10.79
2023-04-14T04:22:40.864Z,10.81
2023-04-14T04:25:33.307Z,10.79
2023-04-14T04:28:25.649Z,10.77
2023-04-14T04:31:20.048Z,10.75
2023-04-14T04:34:00.955Z,10.74
2023-04-14T04:36:53.603Z,10.83
2023-04-14T04:39:31.798Z,10.82
2023-04-14T04:42:23.842Z,10.84
2023-04-14T04:45:21.617Z,10.89
2023-04-14T04:48:13.548Z,10.89
2023-04-14T04:51:05.658Z,10.91
2023-04-14T04:53:57.774Z,10.92
2023-04-14T04:56:49.651Z,10.94
2023-04-14T04:59:41.642Z,10.96
2023-04-14T05:02:33.658Z,10.95
2023-04-14T05:05:26.065Z,10.93
2023-04-14T05:08:18.052Z,10.91
2023-04-14T05:11:10.044Z,10.86
2023-04-14T05:14:02.107Z,10.88
2023-04-14T05:16:44.036Z,11.00
2023-04-14T05:19:36.338Z,11.05
2023-04-14T05:22:28.381Z,11.12
2023-04-14T05:25:20.579Z,11.22
2023-04-14T05:28:14.074Z,11.32
2023-04-14T05:31:06.278Z,11.39
2023-04-14T05:33:58.266Z,11.51
2023-04-14T05:36:33.357Z,11.63
2023-04-14T05:39:25.506Z,11.72
2023-04-14T05:42:17.527Z,11.74
2023-04-14T05:45:11.396Z,11.70
2023-04-14T05:48:03.522Z,11.63
2023-04-14T05:50:55.720Z,11.48
2023-04-14T05:53:47.668Z,11.41
2023-04-14T05:56:39.879Z,11.46
2023-04-14T05:59:22.050Z,11.48
2023-04-14T06:02:14.107Z,11.56
2023-04-14T06:05:07.583Z,11.66
2023-04-14T06:07:59.702Z,11.74
2023-04-14T06:10:51.742Z,11.79
2023-04-14T06:13:43.820Z,11.74
2023-04-14T06:16:36.037Z,11.76
2023-04-14T06:19:28.055Z,11.80
2023-04-14T06:22:20.075Z,11.91
2023-04-14T06:25:12.579Z,12.02
2023-04-14T06:27:49.536Z,12.02
2023-04-14T06:30:41.537Z,12.12
2023-04-14T06:33:33.610Z,12.27
2023-04-14T06:36:25.748Z,12.47
2023-04-14T06:39:17.719Z,12.43
2023-04-14T06:42:12.970Z,12.51
2023-04-14T06:45:05.223Z,12.56
2023-04-14T06:47:57.411Z,12.57
2023-04-14T06:50:56.623Z,12.62
2023-04-14T06:53:48.854Z,12.74
2023-04-14T06:56:40.859Z,12.79
2023-04-14T06:59:32.888Z,12.84
2023-04-14T07:02:24.908Z,12.94
2023-04-14T07:05:18.218Z,12.98
2023-04-14T07:08:10.430Z,13.04
2023-04-14T07:11:04.325Z,13.30
2023-04-14T07:13:56.315Z,13.61
2023-04-14T07:16:48.774Z,13.80
2023-04-14T07:19:40.918Z,13.86
2023-04-14T07:22:33.290Z,13.75
2023-04-14T07:25:25.394Z,13.85
2023-04-14T07:28:17.410Z,13.99
2023-04-14T07:31:13.376Z,14.13
2023-04-14T07:34:05.824Z,14.27
2023-04-14T07:36:57.822Z,14.30
2023-04-14T07:39:49.871Z,14.36
2023-04-14T07:42:41.800Z,14.43
2023-04-14T07:45:33.865Z,14.38
2023-04-14T07:48:25.875Z,14.21
2023-04-14T07:51:18.062Z,13.98
2023-04-14T07:54:10.081Z,13.86
2023-04-14T07:56:44.760Z,13.73
2023-04-14T07:59:38.213Z,13.64
2023-04-14T08:02:30.435Z,13.59
2023-04-14T08:05:22.652Z,13.52
2023-04-14T08:08:15.410Z,13.46
2023-04-14T08:11:07.401Z,13.34
2023-04-14T08:13:59.410Z,13.32
2023-04-14T08:16:51.458Z,13.29
2023-04-14T08:19:43.526Z,13.23
2023-04-14T08:22:25.555Z,13.27
2023-04-14T08:25:17.755Z,13.42
2023-04-14T08:28:09.718Z,13.63
2023-04-14T08:31:01.688Z,13.99
2023-04-14T08:33:53.867Z,14.18
2023-04-14T08:36:47.458Z,14.22
2023-04-14T08:39:39.567Z,14.21
2023-04-14T08:42:31.695Z,14.21
2023-04-14T08:45:23.923Z,14.15
2023-04-14T08:48:20.558Z,14.07
2023-04-14T08:51:23.005Z,14.06
2023-04-14T08:54:16.345Z,14.03
2023-04-14T08:57:09.271Z,14.00
2023-04-14T09:00:04.855Z,13.96
2023-04-14T09:02:57.666Z,13.96
2023-04-14T09:05:50.651Z,14.03
2023-04-14T09:08:42.954Z,14.11
2023-04-14T09:11:34.945Z,14.22
2023-04-14T09:14:11.439Z,14.33
2023-04-14T09:17:03.649Z,14.45
2023-04-14T09:20:38.077Z,14.65
2023-04-14T09:23:10.678Z,14.97
2023-04-14T09:26:03.495Z,15.23
2023-04-14T09:28:55.441Z,15.71
2023-04-14T09:31:47.800Z,16.50
2023-04-14T09:34:53.936Z,17.67
2023-04-14T09:37:48.827Z,19.39
2023-04-14T09:40:42.847Z,20.61
2023-04-14T09:43:36.831Z,21.13
2023-04-14T09:46:28.847Z,21.29
2023-04-14T09:49:20.909Z,21.11
2023-04-14T09:52:12.891Z,20.99
2023-04-14T09:55:08.309Z,21.46
2023-04-14T09:58:00.384Z,22.11
2023-04-14T10:00:52.703Z,22.14
2023-04-14T10:03:43.854Z,21.58
2023-04-14T10:06:35.861Z,20.98
2023-04-14T10:09:29.024Z,20.68
2023-04-14T10:12:21.706Z,20.26
2023-04-14T10:14:56.081Z,19.72
2023-04-14T10:17:48.290Z,19.20
2023-04-14T10:20:40.655Z,18.97
2023-04-14T10:23:32.903Z,18.65
2023-04-14T10:26:24.969Z,18.34
2023-04-14T10:28:58.186Z,18.12
2023-04-14T10:31:53.562Z,17.91
2023-04-14T10:34:58.799Z,17.77
2023-04-14T10:37:54.998Z,17.69
2023-04-14T10:40:52.466Z,17.67
2023-04-14T10:43:44.441Z,17.55
2023-04-14T10:46:47.644Z,17.38
2023-04-14T10:49:26.161Z,17.32
2023-04-14T10:52:34.584Z,17.29
2023-04-14T10:55:28.341Z,17.20
2023-04-14T10:58:23.416Z,17.07
2023-04-14T11:01:32.955Z,16.94
2023-04-14T11:04:25.701Z,16.74
2023-04-14T11:07:23.188Z,16.55
2023-04-14T11:10:33.257Z,16.41
2023-04-14T11:13:25.350Z,16.33
2023-04-14T11:16:34.978Z,16.24
2023-04-14T11:19:27.663Z,16.22
2023-04-14T11:22:41.383Z,16.20
2023-04-14T11:25:34.807Z,16.20
2023-04-14T11:28:32.541Z,16.24
2023-04-14T11:31:29.363Z,16.46
2023-04-14T11:34:29.916Z,16.80
2023-04-14T11:37:22.870Z,17.02
2023-04-14T11:40:16.543Z,17.13
2023-04-14T11:42:56.596Z,17.22
2023-04-14T11:45:48.829Z,17.31
2023-04-14T11:48:30.755Z,17.41
2023-04-14T11:51:29.191Z,17.39
2023-04-14T11:54:03.692Z,17.31
2023-04-14T11:56:55.859Z,17.37
2023-04-14T11:59:48.708Z,17.54
2023-04-14T12:02:43.406Z,17.67
2023-04-14T12:05:36.466Z,17.83
2023-04-14T12:08:30.539Z,17.93
2023-04-14T12:11:22.697Z,17.89
2023-04-14T12:14:15.056Z,17.88
2023-04-14T12:17:07.850Z,17.91
2023-04-14T12:19:59.873Z,17.88
2023-04-14T12:22:34.902Z,17.84
2023-04-14T12:25:13.260Z,17.82
2023-04-14T12:28:07.023Z,17.89
2023-04-14T12:31:02.792Z,17.89
2023-04-14T12:34:00.322Z,17.78
2023-04-14T12:36:54.467Z,17.63
2023-04-14T12:39:57.298Z,17.53
2023-04-14T12:42:51.605Z,17.55
2023-04-14T12:45:43.859Z,17.58
2023-04-14T12:48:44.811Z,17.65
2023-04-14T12:51:41.624Z,17.63
2023-04-14T12:54:48.098Z,17.65
2023-04-14T12:57:40.210Z,17.69
2023-04-14T13:00:32.262Z,17.70
2023-04-14T13:03:24.768Z,17.66
2023-04-14T13:06:18.889Z,17.67
2023-04-14T13:09:11.551Z,17.69
2023-04-14T13:12:03.978Z,17.67
2023-04-14T13:14:56.252Z,17.61
2023-04-14T13:17:48.286Z,17.54
2023-04-14T13:20:40.460Z,17.49
2023-04-14T13:23:32.652Z,17.42
2023-04-14T13:26:24.639Z,17.46
2023-04-14T13:29:16.740Z,17.42
2023-04-14T13:32:12.861Z,17.53
2023-04-14T13:35:05.394Z,17.49
2023-04-14T13:37:58.482Z,17.41
2023-04-14T13:40:50.734Z,17.44
2023-04-14T13:43:42.976Z,17.38
2023-04-14T13:46:40.884Z,17.29
2023-04-14T13:49:33.613Z,17.18
2023-04-14T13:52:25.754Z,17.00
2023-04-14T13:55:19.124Z,16.95
2023-04-14T13:58:11.264Z,16.93
2023-04-14T14:01:11.949Z,16.89
2023-04-14T14:04:04.307Z,16.84
2023-04-14T14:06:56.495Z,16.82
2023-04-14T14:09:50.145Z,16.77
2023-04-14T14:12:42.384Z,16.75
2023-04-14T14:15:34.512Z,16.68
2023-04-14T14:18:27.049Z,16.65
2023-04-14T14:21:19.076Z,16.66
2023-04-14T14:24:11.105Z,16.63
2023-04-14T14:27:03.199Z,16.59
2023-04-14T14:29:55.801Z,16.57
2023-04-14T14:32:47.915Z,16.57
2023-04-14T14:35:40.239Z,16.55
2023-04-14T14:38:32.610Z,16.50
2023-04-14T14:41:24.620Z,16.50
2023-04-14T14:44:17.273Z,16.51
2023-04-14T14:47:09.329Z,16.51
2023-04-14T14:50:05.251Z,16.48
2023-04-14T14:52:45.267Z,16.39
2023-04-14T14:55:37.345Z,16.32
2023-04-14T14:58:29.639Z,16.22
2023-04-14T15:01:21.644Z,16.14
2023-04-14T15:04:13.673Z,16.06
2023-04-14T15:07:05.778Z,16.03
2023-04-14T15:09:57.710Z,16.02
2023-04-14T15:12:49.802Z,16.02
2023-04-14T15:15:42.611Z,16.04
2023-04-14T15:18:35.355Z,16.05
2023-04-14T15:21:27.438Z,16.04
2023-04-14T15:24:19.973Z,16.05
2023-04-14T15:27:11.937Z,16.06
2023-04-14T15:30:04.316Z,16.05
2023-04-14T15:32:56.405Z,16.05
2023-04-14T15:35:48.296Z,16.07
2023-04-14T15:38:40.332Z,16.06
2023-04-14T15:41:32.331Z,16.05
2023-04-14T15:44:26.152Z,16.04
2023-04-14T15:47:18.222Z,16.00
2023-04-14T15:50:12.794Z,15.99
2023-04-14T15:53:05.019Z,15.97
2023-04-14T15:55:59.023Z,15.95
2023-04-14T15:58:51.040Z,15.92
2023-04-14T16:01:31.945Z,15.91
2023-04-14T16:04:25.303Z,15.91
2023-04-14T16:07:17.534Z,15.88
2023-04-14T16:10:10.814Z,15.90
2023-04-14T16:13:02.852Z,15.92
2023-04-14T16:15:54.830Z,15.91
2023-04-14T16:18:46.790Z,15.81
2023-04-14T16:21:38.780Z,15.69
2023-04-14T16:24:30.753Z,15.62
2023-04-14T16:27:22.757Z,15.57
2023-04-14T16:30:15.299Z,15.51
2023-04-14T16:33:04.538Z,15.48
2023-04-14T16:35:56.962Z,15.44
2023-04-14T16:38:40.132Z,15.41
2023-04-14T16:41:33.273Z,15.36
2023-04-14T16:44:13.899Z,15.35
2023-04-14T16:47:05.965Z,15.32
2023-04-14T16:49:58.264Z,15.27
2023-04-14T16:52:50.409Z,15.23
2023-04-14T16:55:42.638Z,15.18
2023-04-14T16:58:19.898Z,15.14
2023-04-14T17:01:11.863Z,15.11
2023-04-14T17:04:04.112Z,15.07
2023-04-14T17:06:46.724Z,15.07
2023-04-14T17:09:38.912Z,15.05
2023-04-14T17:12:19.748Z,15.01
2023-04-14T17:15:13.031Z,15.00
2023-04-14T17:17:50.184Z,14.99
2023-04-14T17:20:43.335Z,14.98
2023-04-14T17:23:38.241Z,14.95
2023-04-14T17:26:30.271Z,14.92
2023-04-14T17:29:22.306Z,14.87
2023-04-14T17:32:14.642Z,14.84
2023-04-14T17:35:07.890Z,14.79
2023-04-14T17:38:00.003Z,14.75
2023-04-14T17:40:53.293Z,14.73
2023-04-14T17:43:39.481Z,14.70
2023-04-14T17:46:34.528Z,14.67
2023-04-14T17:49:27.602Z,14.64
2023-04-14T17:52:02.656Z,14.61
2023-04-14T17:54:55.982Z,14.58
2023-04-14T17:57:48.175Z,14.57
2023-04-14T18:00:40.243Z,14.53
2023-04-14T18:03:32.546Z,14.50
2023-04-14T18:06:09.189Z,14.46
2023-04-14T18:08:50.247Z,14.43
2023-04-14T18:11:42.229Z,14.35
2023-04-14T18:14:35.030Z,14.32
2023-04-14T18:17:27.475Z,14.27
2023-04-14T18:20:24.720Z,14.27
2023-04-14T18:23:17.527Z,14.23
2023-04-14T18:29:04.919Z,14.06
2023-04-14T18:31:58.238Z,13.99
2023-04-14T18:34:40.303Z,13.96
2023-04-14T18:37:17.222Z,13.97
2023-04-14T18:40:11.108Z,13.97
2023-04-14T18:43:03.563Z,13.99
2023-04-14T18:45:55.673Z,13.95
2023-04-14T18:48:48.108Z,13.91
2023-04-14T18:51:40.316Z,13.85
2023-04-14T18:54:33.702Z,13.82
2023-04-14T18:57:25.855Z,13.80
2023-04-14T19:00:18.304Z,13.75
2023-04-14T19:02:59.262Z,13.71
2023-04-14T19:05:37.161Z,13.72
2023-04-14T19:08:29.312Z,13.67
2023-04-14T19:11:21.656Z,13.60
2023-04-14T19:14:13.658Z,13.52
2023-04-14T19:17:05.659Z,13.42
2023-04-14T19:19:57.655Z,13.37
2023-04-14T19:22:49.733Z,13.33
2023-04-14T19:25:41.809Z,13.33
2023-04-14T19:28:33.887Z,13.30
2023-04-14T19:31:28.293Z,13.27
2023-04-14T19:34:20.621Z,13.26
2023-04-14T19:37:13.034Z,13.23
2023-04-14T19:40:06.903Z,13.20
2023-04-14T19:42:58.995Z,13.15
2023-04-14T19:45:55.808Z,13.15
2023-04-14T19:48:47.799Z,13.22
2023-04-14T19:51:39.977Z,13.30
2023-04-14T19:54:32.106Z,13.35
2023-04-14T19:57:24.182Z,13.40
2023-04-14T20:00:17.111Z,13.41
2023-04-14T20:03:09.378Z,13.41
2023-04-14T20:06:01.899Z,13.41
2023-04-14T20:08:54.005Z,13.42
2023-04-14T20:11:46.885Z,13.39
2023-04-14T20:14:38.880Z,13.38
2023-04-14T20:17:13.597Z,13.37
2023-04-14T20:20:06.512Z,13.35
2023-04-14T20:22:59.690Z,13.34
2023-04-14T20:25:52.874Z,13.32
2023-04-14T20:28:45.553Z,13.30
2023-04-14T20:31:38.977Z,13.31
2023-04-14T20:34:30.977Z,13.37
2023-04-14T20:37:23.029Z,13.35
2023-04-14T20:40:15.994Z,13.27
2023-04-14T20:43:08.205Z,13.22
2023-04-14T20:46:00.257Z,13.19
2023-04-14T20:48:38.734Z,13.17
2023-04-14T20:51:13.623Z,13.15
2023-04-14T20:54:05.619Z,13.14
2023-04-14T20:56:57.843Z,13.11
2023-04-14T20:59:49.817Z,13.08
2023-04-14T21:02:42.757Z,13.04
2023-04-14T21:05:35.610Z,13.03
2023-04-14T21:08:28.508Z,13.01
2023-04-14T21:11:20.512Z,13.00
2023-04-14T21:15:40.775Z,13.03
2023-04-14T21:17:24.441Z,13.12
2023-04-14T21:20:16.936Z,13.13
2023-04-14T21:23:08.979Z,13.09
2023-04-14T21:26:01.236Z,13.07
2023-04-14T21:28:53.187Z,13.08
2023-04-14T21:31:45.143Z,13.05
2023-04-14T21:34:37.202Z,13.04
2023-04-14T21:37:29.316Z,12.99
2023-04-14T21:40:21.645Z,12.93
2023-04-14T21:43:13.708Z,12.91
2023-04-14T21:46:05.852Z,12.88
2023-04-14T21:48:57.895Z,12.86
2023-04-14T21:51:55.621Z,12.84
2023-04-14T21:54:47.689Z,12.81
2023-04-14T21:57:44.408Z,12.81
2023-04-14T22:00:41.976Z,12.88
2023-04-14T22:03:34.223Z,12.86
2023-04-14T22:06:26.266Z,12.78
2023-04-14T22:09:18.255Z,12.75
2023-04-14T22:12:10.371Z,12.73
2023-04-14T22:15:04.095Z,12.71
2023-04-14T22:17:56.355Z,12.64
2023-04-14T22:20:49.239Z,12.62
2023-04-14T22:23:43.517Z,12.57
2023-04-14T22:26:35.463Z,12.52
2023-04-14T22:29:27.620Z,12.45
2023-04-14T22:32:19.781Z,12.39
2023-04-14T22:35:12.096Z,12.35
2023-04-14T22:38:04.164Z,12.34
2023-04-14T22:40:56.413Z,12.35
2023-04-14T22:43:37.443Z,12.42
2023-04-14T22:46:29.479Z,12.40
2023-04-14T22:49:21.495Z,12.41
2023-04-14T22:52:13.432Z,12.39
2023-04-14T22:55:05.604Z,12.39
2023-04-14T22:57:57.862Z,12.40
2023-04-14T23:00:49.938Z,12.41
2023-04-14T23:03:42.194Z,12.40
2023-04-14T23:06:34.410Z,12.41
2023-04-14T23:09:30.223Z,12.40
2023-04-14T23:12:22.220Z,12.38
2023-04-14T23:15:14.268Z,12.33
2023-04-14T23:18:06.472Z,12.33
2023-04-14T23:20:58.560Z,12.32
2023-04-14T23:23:50.668Z,12.29
2023-04-14T23:26:42.663Z,12.24
2023-04-14T23:29:34.612Z,12.21
2023-04-14T23:32:26.747Z,12.21
2023-04-14T23:35:18.784Z,12.27
2023-04-14T23:38:10.779Z,12.27
2023-04-14T23:41:02.814Z,12.28
2023-04-14T23:43:54.735Z,12.22
2023-04-14T23:46:46.976Z,12.18
2023-04-14T23:49:39.001Z,12.15
2023-04-14T23:52:31.973Z,12.14
2023-04-14T23:55:24.015Z,12.11
2023-04-14T23:58:26.157Z,12.10
